createdAt,value
2018-11-03T00:00:38.540Z,89.98
2018-11-03T00:03:05.791Z,90.24
2018-11-03T00:05:33.072Z,90.25
2018-11-03T00:08:00.353Z,90.76
2018-11-03T00:10:27.608Z,90.81
2018-11-03T00:12:54.877Z,90.87
2018-11-03T00:15:22.101Z,90.73
2018-11-03T00:17:49.366Z,91.04
2018-11-03T00:20:16.578Z,91.78
2018-11-03T00:22:43.821Z,91.32
2018-11-03T00:25:11.077Z,92.49
2018-11-03T00:27:38.273Z,91.42
2018-11-03T00:30:07.289Z,91.29
2018-11-03T00:32:34.631Z,91.22
2018-11-03T00:35:01.880Z,91.39
2018-11-03T00:37:29.167Z,91.83
2018-11-03T00:39:56.412Z,92.04
2018-11-03T00:42:23.713Z,91.29
2018-11-03T00:44:50.981Z,91.15
2018-11-03T00:47:18.260Z,91.04
2018-11-03T00:49:45.471Z,91.05
2018-11-03T00:52:12.690Z,92.03
2018-11-03T00:54:39.940Z,91.45
2018-11-03T00:57:07.220Z,91.63
2018-11-03T00:59:34.451Z,91.31
2018-11-03T01:02:01.662Z,91.22
2018-11-03T01:04:28.925Z,91.34
2018-11-03T01:06:56.280Z,91.18
2018-11-03T01:09:23.554Z,90.71
2018-11-03T01:11:50.830Z,90.68
2018-11-03T01:14:18.095Z,90.93
2018-11-03T01:16:45.325Z,90.20
2018-11-03T01:19:12.845Z,90.46
2018-11-03T01:21:40.236Z,90.75
2018-11-03T01:24:07.788Z,90.93
2018-11-03T01:26:35.108Z,90.77
2018-11-03T01:29:02.398Z,90.94
2018-11-03T01:31:29.674Z,91.59
2018-11-03T01:33:56.947Z,91.77
2018-11-03T01:36:24.306Z,92.10
2018-11-03T01:38:51.578Z,92.25
2018-11-03T01:41:18.872Z,91.86
2018-11-03T01:43:46.108Z,91.73
2018-11-03T01:46:13.553Z,91.89
2018-11-03T01:48:40.791Z,92.78
2018-11-03T01:51:08.045Z,91.88
2018-11-03T01:53:35.362Z,92.20
2018-11-03T01:56:02.588Z,92.78
2018-11-03T01:58:29.868Z,92.62
2018-11-03T02:00:57.138Z,92.80
2018-11-03T02:03:24.379Z,92.61
2018-11-03T02:05:51.715Z,93.02
2018-11-03T02:08:18.974Z,92.81
2018-11-03T02:10:46.264Z,92.74
2018-11-03T02:13:13.575Z,92.80
2018-11-03T02:15:40.882Z,93.53
2018-11-03T02:18:08.222Z,92.61
2018-11-03T02:20:35.461Z,92.83
2018-11-03T02:23:02.770Z,92.76
2018-11-03T02:25:30.061Z,92.69
2018-11-03T02:27:57.364Z,93.23
2018-11-03T02:30:24.642Z,93.01
2018-11-03T02:32:51.897Z,92.31
2018-11-03T02:35:19.068Z,93.18
2018-11-03T02:37:46.335Z,93.11
2018-11-03T02:40:13.586Z,92.91
2018-11-03T02:42:48.993Z,92.53
2018-11-03T02:45:16.530Z,92.60
2018-11-03T02:47:43.756Z,92.64
2018-11-03T02:50:12.465Z,93.10
2018-11-03T02:52:39.878Z,93.80
2018-11-03T02:55:07.105Z,93.38
2018-11-03T02:57:34.375Z,93.12
2018-11-03T03:00:01.671Z,92.95
2018-11-03T03:02:28.961Z,93.05
2018-11-03T03:04:56.257Z,92.66
2018-11-03T03:07:23.531Z,92.84
2018-11-03T03:09:50.779Z,93.48
2018-11-03T03:12:18.032Z,92.66
2018-11-03T03:14:45.285Z,92.82
2018-11-03T03:17:12.606Z,91.83
2018-11-03T03:19:39.803Z,91.73
2018-11-03T03:22:07.013Z,91.75
2018-11-03T03:24:34.250Z,91.36
2018-11-03T03:27:01.582Z,91.61
2018-11-03T03:29:29.012Z,91.62
2018-11-03T03:31:56.179Z,91.19
2018-11-03T03:34:23.369Z,91.38
2018-11-03T03:36:50.610Z,91.61
2018-11-03T03:39:17.836Z,91.89
2018-11-03T03:41:45.221Z,91.83
2018-11-03T03:44:12.411Z,91.91
2018-11-03T03:46:39.648Z,91.66
2018-11-03T03:49:06.925Z,91.07
2018-11-03T03:51:34.169Z,91.87
2018-11-03T03:54:01.431Z,91.33
2018-11-03T03:56:28.697Z,90.84
2018-11-03T03:58:55.952Z,90.67
2018-11-03T04:01:23.208Z,90.04
2018-11-03T04:03:50.454Z,91.18
2018-11-03T04:06:17.701Z,91.27
2018-11-03T04:08:44.901Z,92.24
2018-11-03T04:11:12.147Z,91.87
2018-11-03T04:13:39.411Z,92.09
2018-11-03T04:16:06.689Z,92.35
2018-11-03T04:18:34.006Z,92.27
2018-11-03T04:21:01.276Z,91.85
2018-11-03T04:23:28.471Z,92.04
2018-11-03T04:25:55.730Z,91.90
2018-11-03T04:28:23.068Z,92.29
2018-11-03T04:30:50.338Z,92.04
2018-11-03T04:33:17.570Z,91.17
2018-11-03T04:35:44.835Z,90.42
2018-11-03T04:38:12.124Z,90.26
2018-11-03T04:40:39.417Z,90.41
2018-11-03T04:43:06.763Z,90.28
2018-11-03T04:45:35.045Z,90.57
2018-11-03T04:48:02.358Z,90.67
2018-11-03T04:50:29.606Z,90.57
2018-11-03T04:52:56.821Z,89.24
2018-11-03T04:55:24.088Z,89.55
2018-11-03T04:57:51.319Z,89.89
2018-11-03T05:00:18.592Z,89.34
2018-11-03T05:02:45.828Z,89.11
2018-11-03T05:05:13.106Z,89.54
2018-11-03T05:07:40.398Z,89.42
2018-11-03T05:10:08.280Z,89.60
2018-11-03T05:12:35.838Z,90.29
2018-11-03T05:15:03.203Z,89.95
2018-11-03T05:17:30.481Z,89.13
2018-11-03T05:20:01.622Z,88.44
2018-11-03T05:22:28.953Z,88.76
2018-11-03T05:24:56.249Z,88.64
2018-11-03T05:27:23.490Z,88.11
2018-11-03T05:29:50.804Z,88.74
2018-11-03T05:32:18.067Z,89.81
2018-11-03T05:34:45.347Z,89.51
2018-11-03T05:37:12.557Z,89.40
2018-11-03T05:39:39.820Z,89.34
2018-11-03T05:42:07.134Z,88.86
2018-11-03T05:44:34.523Z,88.86
2018-11-03T05:47:01.830Z,88.76
2018-11-03T05:49:29.040Z,89.12
2018-11-03T05:51:56.285Z,89.43
2018-11-03T05:54:23.584Z,89.32
2018-11-03T05:56:50.830Z,88.07
2018-11-03T05:59:18.078Z,88.00
2018-11-03T06:01:45.329Z,89.49
2018-11-03T06:04:12.637Z,89.64
2018-11-03T06:06:39.859Z,90.23
2018-11-03T06:09:08.228Z,89.53
2018-11-03T06:11:35.494Z,90.02
2018-11-03T06:14:02.807Z,89.90
2018-11-03T06:16:30.107Z,89.78
2018-11-03T06:18:57.379Z,89.55
2018-11-03T06:21:24.602Z,90.12
2018-11-03T06:23:51.985Z,89.31
2018-11-03T06:26:19.438Z,89.65
2018-11-03T06:28:46.795Z,89.70
2018-11-03T06:31:14.095Z,89.11
2018-11-03T06:33:41.451Z,89.30
2018-11-03T06:36:08.721Z,88.15
2018-11-03T06:38:35.975Z,88.19
2018-11-03T06:41:03.360Z,88.85
2018-11-03T06:43:30.629Z,89.18
2018-11-03T06:45:57.910Z,89.49
2018-11-03T06:48:25.273Z,89.88
2018-11-03T06:50:52.498Z,89.60
2018-11-03T06:53:19.753Z,90.24
2018-11-03T06:55:47.035Z,89.54
2018-11-03T06:58:14.245Z,89.13
2018-11-03T07:00:41.584Z,89.46
2018-11-03T07:03:08.782Z,89.38
2018-11-03T07:05:36.132Z,88.64
2018-11-03T07:08:03.374Z,89.41
2018-11-03T07:10:30.653Z,89.61
2018-11-03T07:12:58.107Z,90.01
2018-11-03T07:15:25.246Z,89.72
2018-11-03T07:17:52.508Z,90.07
2018-11-03T07:20:19.818Z,89.56
2018-11-03T07:22:47.127Z,89.65
2018-11-03T07:25:14.381Z,88.96
2018-11-03T07:27:41.609Z,88.61
2018-11-03T07:30:10.261Z,88.62
2018-11-03T07:32:37.811Z,88.41
2018-11-03T07:35:05.179Z,87.88
2018-11-03T07:37:32.426Z,88.67
2018-11-03T07:39:59.783Z,87.78
2018-11-03T07:42:27.223Z,87.59
2018-11-03T07:44:54.559Z,88.11
2018-11-03T07:47:21.887Z,87.66
2018-11-03T07:49:49.195Z,87.79
2018-11-03T07:52:16.375Z,87.53
2018-11-03T07:54:43.741Z,87.47
2018-11-03T07:57:10.890Z,87.13
2018-11-03T07:59:38.094Z,86.48
2018-11-03T08:02:05.660Z,86.45
2018-11-03T08:04:32.981Z,86.38
2018-11-03T08:07:00.261Z,86.11
2018-11-03T08:09:27.497Z,85.56
2018-11-03T08:11:54.772Z,85.10
2018-11-03T08:14:22.046Z,84.66
2018-11-03T08:16:49.328Z,84.63
2018-11-03T08:19:16.519Z,83.41
2018-11-03T08:21:43.840Z,84.87
2018-11-03T08:24:11.570Z,84.99
2018-11-03T08:26:38.900Z,84.66
2018-11-03T08:29:06.139Z,84.52
2018-11-03T08:31:33.484Z,84.08
2018-11-03T08:34:00.666Z,83.84
2018-11-03T08:36:27.936Z,83.50
2018-11-03T08:38:55.235Z,83.06
2018-11-03T08:41:22.481Z,82.81
2018-11-03T08:43:49.856Z,82.93
2018-11-03T08:46:17.083Z,83.50
2018-11-03T08:48:44.488Z,83.05
2018-11-03T08:51:11.630Z,82.08
2018-11-03T08:53:38.982Z,83.05
2018-11-03T08:56:06.260Z,83.28
2018-11-03T08:58:33.485Z,84.07
2018-11-03T09:01:01.073Z,83.04
2018-11-03T09:03:28.514Z,82.62
2018-11-03T09:05:55.750Z,81.85
2018-11-03T09:08:23.020Z,81.25
2018-11-03T09:10:50.375Z,81.42
2018-11-03T09:13:17.659Z,81.30
2018-11-03T09:15:44.960Z,81.78
2018-11-03T09:18:12.174Z,82.05
2018-11-03T09:20:39.505Z,81.42
2018-11-03T09:23:06.767Z,81.73
2018-11-03T09:25:33.985Z,80.48
2018-11-03T09:28:01.255Z,80.83
2018-11-03T09:30:28.542Z,80.43
2018-11-03T09:32:55.837Z,79.84
2018-11-03T09:35:23.122Z,79.96
2018-11-03T09:37:50.381Z,80.22
2018-11-03T09:40:18.099Z,80.82
2018-11-03T09:42:46.358Z,80.93
2018-11-03T09:45:13.831Z,80.07
2018-11-03T09:47:41.496Z,79.86
2018-11-03T09:50:10.261Z,79.81
2018-11-03T09:52:37.921Z,78.21
2018-11-03T09:55:06.926Z,78.65
2018-11-03T09:57:34.163Z,79.39
2018-11-03T10:00:01.490Z,80.00
2018-11-03T10:02:28.934Z,81.96
2018-11-03T10:04:56.269Z,81.13
2018-11-03T10:07:23.634Z,80.10
2018-11-03T10:09:51.077Z,79.96
2018-11-03T10:12:18.443Z,79.61
2018-11-03T10:14:45.845Z,79.62
2018-11-03T10:17:13.209Z,79.44
2018-11-03T10:19:40.581Z,79.72
2018-11-03T10:22:08.023Z,78.08
2018-11-03T10:24:35.269Z,78.16
2018-11-03T10:27:02.637Z,78.83
2018-11-03T10:29:29.817Z,78.19
2018-11-03T10:31:57.103Z,78.74
2018-11-03T10:34:24.354Z,77.86
2018-11-03T10:36:51.605Z,76.34
2018-11-03T10:39:18.859Z,75.94
2018-11-03T10:41:46.125Z,78.00
2018-11-03T10:44:13.424Z,77.60
2018-11-03T10:46:40.723Z,77.86
2018-11-03T10:49:08.043Z,76.99
2018-11-03T10:51:35.297Z,76.18
2018-11-03T10:54:02.549Z,76.83
2018-11-03T10:56:29.712Z,76.92
2018-11-03T10:58:57.097Z,76.53
2018-11-03T11:01:30.162Z,76.92
2018-11-03T11:04:03.168Z,77.46
2018-11-03T11:06:36.072Z,76.65
2018-11-03T11:09:09.662Z,77.02
2018-11-03T11:11:42.433Z,74.35
2018-11-03T11:14:09.880Z,73.54
2018-11-03T11:16:37.017Z,75.19
2018-11-03T11:19:04.288Z,74.47
2018-11-03T11:21:31.534Z,74.56
2018-11-03T11:23:58.838Z,73.78
2018-11-03T11:26:26.044Z,74.95
2018-11-03T11:28:53.293Z,73.48
2018-11-03T11:31:20.643Z,72.77
2018-11-03T11:33:47.851Z,72.26
2018-11-03T11:36:15.070Z,70.56
2018-11-03T11:38:42.417Z,69.99
2018-11-03T11:41:09.585Z,73.11
2018-11-03T11:43:36.852Z,71.14
2018-11-03T11:46:04.250Z,69.55
2018-11-03T11:48:31.461Z,67.92
2018-11-03T11:50:58.753Z,67.46
2018-11-03T11:53:25.985Z,65.48
2018-11-03T11:55:53.181Z,64.87
2018-11-03T11:58:20.440Z,63.69
2018-11-03T12:00:47.777Z,63.19
2018-11-03T12:03:14.978Z,64.36
2018-11-03T12:05:42.256Z,63.45
2018-11-03T12:08:09.593Z,63.49
2018-11-03T12:10:36.828Z,62.73
2018-11-03T12:13:04.282Z,62.45
2018-11-03T12:15:31.560Z,62.88
2018-11-03T12:17:58.876Z,62.13
2018-11-03T12:20:26.127Z,60.91
2018-11-03T12:22:53.377Z,60.57
2018-11-03T12:25:20.708Z,62.40
2018-11-03T12:27:55.746Z,60.60
2018-11-03T12:30:23.014Z,59.04
2018-11-03T12:32:51.164Z,59.23
2018-11-03T12:35:18.409Z,59.11
2018-11-03T12:37:45.679Z,58.98
2018-11-03T12:40:14.043Z,58.86
2018-11-03T12:42:41.316Z,60.15
2018-11-03T12:45:09.245Z,61.17
2018-11-03T12:47:36.599Z,60.94
2018-11-03T12:50:04.294Z,61.63
2018-11-03T12:52:31.777Z,64.54
2018-11-03T12:54:59.607Z,64.17
2018-11-03T12:57:26.971Z,63.52
2018-11-03T12:59:54.299Z,64.45
2018-11-03T13:02:21.574Z,63.73
2018-11-03T13:04:48.901Z,63.02
2018-11-03T13:07:16.179Z,64.79
2018-11-03T13:09:43.601Z,64.86
2018-11-03T13:12:10.705Z,64.21
2018-11-03T13:14:38.099Z,63.28
2018-11-03T13:17:05.560Z,64.83
2018-11-03T13:19:33.049Z,64.30
2018-11-03T13:22:00.529Z,63.65
2018-11-03T13:24:27.798Z,66.14
2018-11-03T13:26:55.336Z,65.59
2018-11-03T13:29:22.844Z,66.84
2018-11-03T13:31:50.147Z,66.60
2018-11-03T13:34:17.650Z,67.72
2018-11-03T13:36:44.940Z,67.19
2018-11-03T13:39:12.281Z,67.62
2018-11-03T13:41:39.604Z,68.88
2018-11-03T13:44:07.232Z,69.29
2018-11-03T13:46:34.660Z,68.65
2018-11-03T13:49:02.225Z,68.92
2018-11-03T13:51:29.524Z,70.40
2018-11-03T13:53:56.990Z,70.88
2018-11-03T13:56:24.239Z,69.96
2018-11-03T13:58:51.849Z,70.83
2018-11-03T14:01:19.154Z,70.42
2018-11-03T14:03:46.415Z,71.28
2018-11-03T14:06:13.762Z,72.21
2018-11-03T14:08:41.005Z,72.02
2018-11-03T14:11:08.234Z,71.77
2018-11-03T14:13:35.428Z,73.47
2018-11-03T14:16:02.668Z,73.16
2018-11-03T14:18:30.018Z,73.28
2018-11-03T14:20:57.242Z,74.17
2018-11-03T14:23:24.502Z,73.25
2018-11-03T14:25:51.666Z,73.58
2018-11-03T14:28:18.940Z,74.03
2018-11-03T14:30:46.394Z,73.44
2018-11-03T14:33:13.996Z,74.00
2018-11-03T14:35:41.325Z,74.35
2018-11-03T14:38:08.719Z,73.79
2018-11-03T14:40:35.997Z,74.03
2018-11-03T14:43:03.232Z,74.35
2018-11-03T14:45:32.578Z,74.16
2018-11-03T14:47:59.889Z,75.14
2018-11-03T14:50:32.366Z,75.36
2018-11-03T14:52:59.798Z,75.14
2018-11-03T14:55:27.083Z,75.37
2018-11-03T14:57:54.481Z,75.53
2018-11-03T15:00:21.718Z,75.86
2018-11-03T15:02:48.952Z,75.52
2018-11-03T15:05:16.211Z,76.16
2018-11-03T15:07:43.409Z,75.90
2018-11-03T15:10:11.498Z,75.99
2018-11-03T15:12:39.422Z,76.41
2018-11-03T15:15:08.160Z,76.84
2018-11-03T15:17:35.412Z,76.57
2018-11-03T15:20:02.682Z,76.49
2018-11-03T15:22:29.937Z,77.99
2018-11-03T15:24:57.173Z,77.30
2018-11-03T15:27:24.429Z,78.23
2018-11-03T15:29:51.707Z,77.74
2018-11-03T15:32:18.958Z,77.79
2018-11-03T15:34:46.223Z,77.82
2018-11-03T15:37:13.513Z,78.61
2018-11-03T15:39:40.761Z,78.55
2018-11-03T15:42:08.109Z,78.43
2018-11-03T15:44:35.358Z,78.06
2018-11-03T15:47:02.610Z,78.35
2018-11-03T15:49:29.879Z,78.92
2018-11-03T15:51:57.102Z,78.46
2018-11-03T15:54:24.578Z,79.08
2018-11-03T15:56:51.857Z,79.25
2018-11-03T15:59:19.106Z,79.97
2018-11-03T16:01:46.372Z,79.66
2018-11-03T16:04:13.686Z,79.76
2018-11-03T16:06:40.961Z,79.52
2018-11-03T16:09:09.764Z,79.41
2018-11-03T16:11:37.063Z,79.83
2018-11-03T16:14:04.641Z,79.16
2018-11-03T16:16:31.945Z,80.43
2018-11-03T16:18:59.206Z,81.03
2018-11-03T16:21:26.421Z,80.88
2018-11-03T16:23:53.729Z,81.06
2018-11-03T16:26:20.923Z,81.25
2018-11-03T16:28:48.240Z,81.29
2018-11-03T16:31:15.503Z,81.53
2018-11-03T16:33:42.744Z,81.57
2018-11-03T16:36:10.047Z,81.18
2018-11-03T16:38:37.408Z,81.86
2018-11-03T16:41:04.637Z,81.84
2018-11-03T16:43:31.894Z,81.42
2018-11-03T16:45:59.174Z,82.05
2018-11-03T16:48:26.485Z,81.78
2018-11-03T16:50:53.755Z,82.21
2018-11-03T16:53:21.024Z,82.37
2018-11-03T16:55:48.263Z,81.96
2018-11-03T16:58:15.482Z,82.33
2018-11-03T17:00:42.737Z,82.91
2018-11-03T17:03:09.984Z,82.50
2018-11-03T17:05:37.242Z,83.06
2018-11-03T17:08:04.574Z,82.40
2018-11-03T17:10:31.824Z,83.02
2018-11-03T17:12:59.150Z,82.43
2018-11-03T17:15:26.393Z,82.97
2018-11-03T17:17:53.587Z,82.86
2018-11-03T17:20:20.850Z,82.96
2018-11-03T17:22:48.069Z,83.48
2018-11-03T17:25:15.388Z,83.13
2018-11-03T17:27:42.629Z,82.75
2018-11-03T17:30:11.974Z,83.65
2018-11-03T17:32:39.226Z,83.05
2018-11-03T17:35:06.503Z,82.75
2018-11-03T17:37:33.715Z,83.65
2018-11-03T17:40:00.945Z,83.31
2018-11-03T17:42:28.247Z,84.08
2018-11-03T17:44:55.462Z,83.60
2018-11-03T17:47:22.872Z,83.66
2018-11-03T17:49:50.207Z,83.98
2018-11-03T17:52:17.641Z,84.29
2018-11-03T17:54:45.154Z,83.76
2018-11-03T17:57:12.440Z,83.49
2018-11-03T17:59:39.700Z,83.72
2018-11-03T18:02:07.007Z,83.90
2018-11-03T18:04:34.215Z,83.50
2018-11-03T18:07:01.695Z,82.89
2018-11-03T18:09:29.727Z,82.95
2018-11-03T18:11:57.453Z,83.09
2018-11-03T18:14:25.197Z,83.27
2018-11-03T18:16:52.483Z,83.66
2018-11-03T18:19:19.712Z,83.24
2018-11-03T18:21:46.992Z,83.50
2018-11-03T18:24:14.198Z,83.41
2018-11-03T18:26:41.558Z,83.18
2018-11-03T18:29:08.747Z,83.10
2018-11-03T18:31:36.281Z,83.58
2018-11-03T18:34:03.581Z,83.67
2018-11-03T18:36:31.403Z,83.10
2018-11-03T18:38:58.706Z,83.90
2018-11-03T18:41:25.991Z,83.42
2018-11-03T18:43:53.240Z,83.17
2018-11-03T18:46:20.542Z,83.26
2018-11-03T18:48:47.783Z,83.56
2018-11-03T18:51:15.051Z,83.90
2018-11-03T18:53:42.274Z,83.92
2018-11-03T18:56:09.667Z,82.90
2018-11-03T18:58:36.956Z,84.25
2018-11-03T19:01:04.860Z,84.40
2018-11-03T19:03:32.170Z,85.62
2018-11-03T19:05:59.451Z,85.09
2018-11-03T19:08:26.683Z,85.11
2018-11-03T19:10:53.984Z,85.25
2018-11-03T19:13:21.282Z,85.08
2018-11-03T19:15:48.515Z,84.53
2018-11-03T19:18:16.026Z,84.70
2018-11-03T19:20:43.341Z,84.17
2018-11-03T19:23:10.603Z,85.12
2018-11-03T19:25:37.858Z,85.10
2018-11-03T19:28:05.137Z,85.21
2018-11-03T19:30:32.734Z,85.99
2018-11-03T19:33:00.102Z,86.46
2018-11-03T19:35:27.391Z,86.25
2018-11-03T19:37:54.631Z,86.18
2018-11-03T19:40:21.969Z,85.92
2018-11-03T19:42:50.038Z,85.52
2018-11-03T19:45:17.493Z,85.66
2018-11-03T19:47:45.617Z,85.54
2018-11-03T19:50:12.983Z,84.69
2018-11-03T19:52:40.220Z,85.42
2018-11-03T19:55:07.527Z,85.19
2018-11-03T19:57:34.774Z,84.50
2018-11-03T20:00:02.053Z,84.69
2018-11-03T20:02:29.348Z,84.41
2018-11-03T20:04:56.595Z,84.36
2018-11-03T20:07:24.264Z,85.10
2018-11-03T20:09:51.920Z,84.40
2018-11-03T20:12:19.625Z,85.08
2018-11-03T20:14:46.901Z,84.62
2018-11-03T20:17:14.166Z,84.02
2018-11-03T20:19:41.461Z,84.24
2018-11-03T20:22:08.781Z,85.04
2018-11-03T20:24:36.222Z,85.57
2018-11-03T20:27:03.575Z,85.31
2018-11-03T20:32:11.208Z,85.12
2018-11-03T20:34:38.838Z,84.74
2018-11-03T20:37:09.373Z,84.59
2018-11-03T20:39:36.972Z,84.67
2018-11-03T20:42:06.548Z,84.58
2018-11-03T20:44:34.161Z,84.85
2018-11-03T20:47:01.526Z,85.31
2018-11-03T20:50:00.124Z,85.85
2018-11-03T20:52:28.419Z,84.75
2018-11-03T20:54:57.937Z,85.04
2018-11-03T20:57:25.699Z,85.25
2018-11-03T20:59:55.079Z,85.96
2018-11-03T21:02:22.690Z,86.70
2018-11-03T21:04:50.915Z,85.71
2018-11-03T21:07:21.647Z,86.39
2018-11-03T21:09:49.227Z,85.91
2018-11-03T21:12:16.767Z,85.53
2018-11-03T21:14:44.932Z,85.58
2018-11-03T21:17:13.577Z,85.18
2018-11-03T21:19:41.041Z,86.59
2018-11-03T21:22:09.927Z,86.79
2018-11-03T21:24:37.810Z,86.59
2018-11-03T21:27:07.812Z,86.38
2018-11-03T21:29:36.641Z,85.79
2018-11-03T21:32:05.957Z,86.18
2018-11-03T21:34:33.354Z,86.63
2018-11-03T21:37:01.791Z,86.61
2018-11-03T21:39:29.332Z,85.85
2018-11-03T21:42:14.395Z,86.35
2018-11-03T21:44:42.818Z,86.07
2018-11-03T21:47:10.592Z,86.43
2018-11-03T21:49:40.132Z,85.67
2018-11-03T21:52:07.697Z,85.96
2018-11-03T21:54:35.863Z,85.79
2018-11-03T21:57:03.499Z,85.54
2018-11-03T21:59:31.120Z,85.60
2018-11-03T22:01:58.433Z,85.44
2018-11-03T22:04:25.822Z,85.64
2018-11-03T22:06:54.968Z,86.20
2018-11-03T22:09:23.078Z,86.65
2018-11-03T22:11:51.505Z,86.10
2018-11-03T22:14:19.233Z,86.26
2018-11-03T22:16:47.216Z,87.35
2018-11-03T22:19:19.815Z,87.33
2018-11-03T22:21:47.836Z,87.43
2018-11-03T22:24:15.303Z,87.58
2018-11-03T22:26:43.796Z,86.66
2018-11-03T22:29:11.283Z,86.57
2018-11-03T22:31:38.980Z,87.80
2018-11-03T22:34:06.346Z,87.61
2018-11-03T22:36:35.327Z,87.37
2018-11-03T22:39:04.860Z,87.77
2018-11-03T22:41:33.048Z,87.50
2018-11-03T22:44:01.881Z,88.30
2018-11-03T22:46:29.504Z,87.95
2018-11-03T22:48:57.338Z,87.54
2018-11-03T22:51:24.843Z,87.30
2018-11-03T22:53:52.285Z,87.86
2018-11-03T22:56:20.037Z,87.05
2018-11-03T22:58:49.189Z,87.25
2018-11-03T23:01:16.976Z,86.45
2018-11-03T23:03:44.799Z,86.72
2018-11-03T23:06:12.710Z,86.95
2018-11-03T23:08:40.258Z,87.30
2018-11-03T23:11:07.715Z,87.29
2018-11-03T23:13:35.485Z,87.54
2018-11-03T23:16:06.875Z,86.89
2018-11-03T23:18:34.160Z,86.57
2018-11-03T23:21:01.710Z,86.65
2018-11-03T23:23:28.991Z,87.05
2018-11-03T23:25:57.505Z,87.52
2018-11-03T23:28:24.989Z,87.87
2018-11-03T23:30:52.587Z,88.42
2018-11-03T23:33:22.617Z,88.38
2018-11-03T23:35:50.064Z,87.89
2018-11-03T23:38:19.348Z,87.99
2018-11-03T23:40:49.776Z,88.24
2018-11-03T23:43:17.415Z,88.59
2018-11-03T23:45:45.117Z,88.11
2018-11-03T23:48:12.575Z,88.19
2018-11-03T23:50:42.108Z,88.74
2018-11-03T23:53:09.562Z,88.68
2018-11-03T23:55:37.154Z,88.34
2018-11-03T23:58:04.883Z,87.63
